createdAt,value
2022-09-21T00:01:39.174Z,9.10
2022-09-21T00:12:02.551Z,8.90
2022-09-21T00:22:11.586Z,9.30
2022-09-21T00:32:53.974Z,10.00
2022-09-21T00:43:53.821Z,8.50
2022-09-21T00:54:22.296Z,9.40
2022-09-21T01:04:49.370Z,8.40
2022-09-21T01:15:58.581Z,9.00
2022-09-21T01:27:07.097Z,8.60
2022-09-21T01:37:45.000Z,7.90
2022-09-21T01:48:35.890Z,8.90
2022-09-21T01:59:28.723Z,8.00
2022-09-21T02:09:39.913Z,8.10
2022-09-21T02:20:39.281Z,8.20
2022-09-21T02:30:54.033Z,8.50
2022-09-21T02:41:39.100Z,8.70
2022-09-21T02:52:16.044Z,10.00
2022-09-21T03:02:38.885Z,11.30
2022-09-21T03:13:54.274Z,10.80
2022-09-21T03:24:03.304Z,10.80
2022-09-21T03:35:02.034Z,10.40
2022-09-21T03:45:27.720Z,11.20
2022-09-21T03:55:44.305Z,10.60
2022-09-21T04:05:53.440Z,12.50
2022-09-21T04:15:59.779Z,13.10
2022-09-21T04:26:59.678Z,13.70
2022-09-21T04:37:39.362Z,12.70
2022-09-21T04:47:57.634Z,12.50
2022-09-21T04:58:23.765Z,14.40
2022-09-21T05:08:51.627Z,10.10
2022-09-21T05:19:36.510Z,11.60
2022-09-21T05:29:52.391Z,10.90
2022-09-21T05:40:01.513Z,12.60
2022-09-21T05:50:46.765Z,12.90
2022-09-21T06:01:19.987Z,11.80
2022-09-21T06:11:38.411Z,10.00
2022-09-21T06:21:47.556Z,10.40
2022-09-21T06:32:00.205Z,9.00
2022-09-21T06:42:30.083Z,9.90
2022-09-21T06:52:38.232Z,9.30
2022-09-21T07:02:50.437Z,6.70
2022-09-21T07:13:05.706Z,6.50
2022-09-21T07:23:41.666Z,4.90
2022-09-21T07:33:50.414Z,5.40
2022-09-21T07:44:09.487Z,3.80
2022-09-21T07:55:13.332Z,3.70
2022-09-21T08:05:43.239Z,4.50
2022-09-21T08:16:06.914Z,2.90
2022-09-21T08:26:53.262Z,3.00
2022-09-21T08:36:56.740Z,3.60
2022-09-21T08:47:52.461Z,2.60
2022-09-21T08:58:23.778Z,2.10
2022-09-21T09:09:29.012Z,1.70
2022-09-21T09:20:28.763Z,3.80
2022-09-21T09:31:07.796Z,2.50
2022-09-21T09:41:26.763Z,2.00
2022-09-21T09:51:43.609Z,2.30
2022-09-21T10:02:30.373Z,5.00
2022-09-21T10:12:42.248Z,1.90
2022-09-21T10:22:58.061Z,4.30
2022-09-21T10:33:01.864Z,3.00
2022-09-21T10:43:43.683Z,1.60
2022-09-21T10:53:53.791Z,1.90
2022-09-21T11:04:03.578Z,1.50
2022-09-21T11:14:49.452Z,3.10
2022-09-21T11:25:40.921Z,2.20
2022-09-21T11:36:23.333Z,2.30
2022-09-21T11:46:53.311Z,2.80
2022-09-21T11:57:43.769Z,2.40
2022-09-21T12:08:32.010Z,1.20
2022-09-21T12:19:53.668Z,1.00
2022-09-21T12:30:12.544Z,1.40
2022-09-21T12:40:28.046Z,1.80
2022-09-21T12:51:35.720Z,3.40
2022-09-21T13:02:25.470Z,1.90
2022-09-21T13:12:45.248Z,1.20
2022-09-21T13:23:27.262Z,0.80
2022-09-21T13:33:41.461Z,1.60
2022-09-21T13:44:13.652Z,2.30
2022-09-21T13:54:35.272Z,2.20
2022-09-21T14:04:44.968Z,4.00
2022-09-21T14:16:01.792Z,2.20
2022-09-21T14:26:43.389Z,4.30
2022-09-21T14:36:59.805Z,1.60
2022-09-21T14:47:54.185Z,2.70
2022-09-21T14:58:44.808Z,1.00
2022-09-21T15:09:43.575Z,2.00
2022-09-21T15:19:50.382Z,2.00
2022-09-21T15:30:22.151Z,3.40
2022-09-21T15:40:35.323Z,3.80
2022-09-21T15:50:48.406Z,2.20
2022-09-21T16:01:12.498Z,2.30
2022-09-21T16:11:33.395Z,2.30
2022-09-21T16:22:22.453Z,1.10
2022-09-21T16:32:32.979Z,5.10
2022-09-21T16:42:37.796Z,3.00
2022-09-21T16:52:55.725Z,4.20
2022-09-21T17:03:09.217Z,3.60
2022-09-21T17:13:17.221Z,7.30
2022-09-21T17:23:54.085Z,5.00
2022-09-21T17:34:55.006Z,6.30
2022-09-21T17:46:07.057Z,5.30
2022-09-21T17:57:23.452Z,7.10
2022-09-21T18:07:40.153Z,7.90
2022-09-21T18:17:58.396Z,7.90
2022-09-21T18:28:23.855Z,9.40
2022-09-21T18:38:37.548Z,11.00
2022-09-21T18:49:34.899Z,12.10
2022-09-21T18:59:49.589Z,15.90
2022-09-21T19:11:00.663Z,14.10
2022-09-21T19:21:42.872Z,18.90
2022-09-21T19:31:46.511Z,12.80
2022-09-21T19:42:16.350Z,14.10
2022-09-21T19:52:40.383Z,9.70
2022-09-21T20:03:58.917Z,39.00
2022-09-21T20:15:08.228Z,10.40
2022-09-21T20:26:15.884Z,26.10
2022-09-21T20:36:42.468Z,17.70
2022-09-21T20:47:21.425Z,44.70
2022-09-21T20:57:51.199Z,51.30
2022-09-21T21:08:30.864Z,10.50
2022-09-21T21:19:30.802Z,8.70
2022-09-21T21:30:00.662Z,15.70
2022-09-21T21:40:50.224Z,8.40
2022-09-21T21:51:31.677Z,9.40
2022-09-21T22:02:15.313Z,17.10
2022-09-21T22:12:56.508Z,10.90
2022-09-21T22:23:19.913Z,13.50
2022-09-21T22:33:40.428Z,9.00
2022-09-21T22:44:03.195Z,9.50
2022-09-21T22:54:06.795Z,7.70
2022-09-21T23:14:27.958Z,7.80
2022-09-21T23:24:36.987Z,20.90
2022-09-21T23:34:48.492Z,8.10
2022-09-21T23:45:00.880Z,8.00
2022-09-21T23:55:19.846Z,9.50
